createdAt,value
2022-09-12T00:00:09.129Z,12.7
2022-09-12T00:01:10.297Z,12.62
2022-09-12T00:02:10.699Z,12.66
2022-09-12T00:03:10.431Z,12.61
2022-09-12T00:04:11.062Z,12.65
2022-09-12T00:05:12.399Z,12.65
2022-09-12T00:06:12.582Z,12.66
2022-09-12T00:07:13.356Z,12.68
2022-09-12T00:08:14.061Z,12.66
2022-09-12T00:09:14.250Z,12.65
2022-09-12T00:10:15.162Z,12.69
2022-09-12T00:11:15.065Z,12.69
2022-09-12T00:12:16.679Z,12.66
2022-09-12T00:13:16.923Z,12.58
2022-09-12T00:14:17.133Z,12.61
2022-09-12T00:15:18.139Z,12.62
2022-09-12T00:16:18.618Z,12.66
2022-09-12T00:17:19.438Z,12.58
2022-09-12T00:18:20.344Z,12.57
2022-09-12T00:19:21.253Z,12.57
2022-09-12T00:20:22.168Z,12.55
2022-09-12T00:21:22.482Z,12.55
2022-09-12T00:22:23.091Z,12.5
2022-09-12T00:23:23.573Z,12.54
2022-09-12T00:24:23.491Z,12.45
2022-09-12T00:25:24.195Z,12.55
2022-09-12T00:26:24.827Z,12.47
2022-09-12T00:27:25.460Z,12.47
2022-09-12T00:28:27.209Z,12.44
2022-09-12T00:29:26.420Z,12.4
2022-09-12T00:30:26.325Z,12.37
2022-09-12T00:31:26.872Z,12.39
2022-09-12T00:32:27.326Z,12.43
2022-09-12T00:33:28.236Z,12.45
2022-09-12T00:34:28.853Z,12.37
2022-09-12T00:35:29.565Z,12.44
2022-09-12T00:36:30.475Z,12.45
2022-09-12T00:37:31.396Z,12.47
2022-09-12T00:38:32.004Z,12.45
2022-09-12T00:39:32.743Z,12.43
2022-09-12T00:40:33.752Z,12.39
2022-09-12T00:41:33.662Z,12.37
2022-09-12T00:42:33.976Z,12.37
2022-09-12T00:43:35.198Z,12.37
2022-09-12T00:44:35.107Z,12.3
2022-09-12T00:45:36.237Z,12.36
2022-09-12T00:46:36.256Z,12.4
2022-09-12T00:47:37.146Z,12.35
2022-09-12T00:48:37.078Z,12.4
2022-09-12T00:49:37.800Z,12.33
2022-09-12T00:50:39.050Z,12.39
2022-09-12T00:51:39.647Z,12.4
2022-09-12T00:52:40.258Z,12.32
2022-09-12T00:53:41.749Z,12.36
2022-09-12T00:54:42.238Z,12.29
2022-09-12T00:55:42.960Z,12.35
2022-09-12T00:56:43.866Z,12.25
2022-09-12T00:57:44.509Z,12.29
2022-09-12T00:58:45.224Z,12.26
2022-09-12T00:59:45.559Z,12.25
2022-09-12T01:00:46.567Z,12.28
2022-09-12T01:01:47.146Z,12.17
2022-09-12T01:02:47.166Z,12.25
2022-09-12T01:03:48.070Z,12.18
2022-09-12T01:04:48.684Z,12.17
2022-09-12T01:05:49.126Z,12.28
2022-09-12T01:06:49.620Z,12.21
2022-09-12T01:07:49.532Z,12.28
2022-09-12T01:10:51.883Z,12.18
2022-09-12T01:11:52.500Z,12.32
2022-09-12T01:12:53.415Z,12.26
2022-09-12T01:13:54.632Z,12.33
2022-09-12T01:14:54.618Z,12.28
2022-09-12T01:15:55.605Z,12.29
2022-09-12T01:16:55.663Z,12.26
2022-09-12T01:17:56.547Z,12.29
2022-09-12T01:18:56.864Z,12.18
2022-09-12T01:19:56.774Z,12.29
2022-09-12T01:20:57.971Z,12.26
2022-09-12T01:21:58.587Z,12.28
2022-09-12T01:22:58.775Z,12.17
2022-09-12T01:23:59.967Z,12.15
2022-09-12T01:25:00.674Z,12.2
2022-09-12T01:26:01.401Z,12.21
2022-09-12T01:27:01.993Z,12.28
2022-09-12T01:28:01.899Z,12.23
2022-09-12T01:29:02.848Z,12.17
2022-09-12T01:30:03.059Z,12.2
2022-09-12T01:31:03.696Z,12.3
2022-09-12T01:32:04.760Z,12.26
2022-09-12T01:33:04.780Z,12.2
2022-09-12T01:34:05.264Z,12.17
2022-09-12T01:35:05.880Z,12.29
2022-09-12T01:36:06.899Z,12.2
2022-09-12T01:37:06.784Z,12.29
2022-09-12T01:38:07.397Z,12.28
2022-09-12T01:39:07.883Z,12.23
2022-09-12T01:40:08.286Z,12.32
2022-09-12T01:41:08.553Z,12.32
2022-09-12T01:42:08.886Z,12.28
2022-09-12T01:43:09.498Z,12.18
2022-09-12T01:44:10.451Z,12.2
2022-09-12T01:45:11.376Z,12.21
2022-09-12T01:46:11.859Z,12.29
2022-09-12T01:47:12.054Z,12.18
2022-09-12T01:48:11.968Z,12.14
2022-09-12T01:49:12.596Z,12.21
2022-09-12T01:50:13.783Z,12.17
2022-09-12T01:51:13.814Z,12.21
2022-09-12T01:52:14.467Z,12.15
2022-09-12T01:53:14.785Z,12.15
2022-09-12T01:54:15.410Z,12.25
2022-09-12T01:55:16.023Z,12.15
2022-09-12T01:56:16.726Z,12.18
2022-09-12T01:57:17.644Z,12.21
2022-09-12T01:58:17.255Z,12.21
2022-09-12T01:59:18.475Z,12.17
2022-09-12T02:00:18.113Z,12.21
2022-09-12T02:01:18.869Z,12.21
2022-09-12T02:02:19.152Z,12.17
2022-09-12T02:03:19.840Z,12.18
2022-09-12T02:04:20.151Z,12.14
2022-09-12T02:05:20.231Z,12.15
2022-09-12T02:06:21.252Z,12.17
2022-09-12T02:07:21.884Z,12.3
2022-09-12T02:08:23.094Z,12.17
2022-09-12T02:09:22.983Z,12.18
2022-09-12T02:10:23.872Z,12.17
2022-09-12T02:11:24.260Z,12.25
2022-09-12T02:12:24.578Z,12.21
2022-09-12T02:13:25.764Z,12.21
2022-09-12T02:14:26.010Z,12.18
2022-09-12T02:15:26.488Z,12.1
2022-09-12T02:16:26.522Z,12.08
2022-09-12T02:17:27.628Z,12.03
2022-09-12T02:18:28.814Z,12
2022-09-12T02:19:29.568Z,11.93
2022-09-12T02:20:52.425Z,11.97
2022-09-12T02:21:31.325Z,11.93
2022-09-12T02:22:31.933Z,11.88
2022-09-12T02:23:32.122Z,11.93
2022-09-12T02:24:32.059Z,11.88
2022-09-12T02:25:32.541Z,11.89
2022-09-12T02:26:33.228Z,11.89
2022-09-12T02:27:34.140Z,11.91
2022-09-12T02:28:34.949Z,11.89
2022-09-12T02:29:35.809Z,11.86
2022-09-12T02:30:36.145Z,11.91
2022-09-12T02:31:36.183Z,11.83
2022-09-12T02:32:36.804Z,11.95
2022-09-12T02:33:37.409Z,11.93
2022-09-12T02:34:38.311Z,11.95
2022-09-12T02:35:39.199Z,11.88
2022-09-12T02:36:40.346Z,11.88
2022-09-12T02:37:40.537Z,11.88
2022-09-12T02:38:40.972Z,11.95
2022-09-12T02:39:45.790Z,11.95
2022-09-12T02:40:42.237Z,11.89
2022-09-12T02:41:43.150Z,11.91
2022-09-12T02:42:44.036Z,11.88
2022-09-12T02:43:44.360Z,11.96
2022-09-12T02:44:44.986Z,11.91
2022-09-12T02:45:46.367Z,11.93
2022-09-12T02:46:46.121Z,11.91
2022-09-12T02:47:47.023Z,11.96
2022-09-12T02:48:47.710Z,11.89
2022-09-12T02:49:48.337Z,11.88
2022-09-12T02:50:48.817Z,11.91
2022-09-12T02:51:48.742Z,11.86
2022-09-12T02:52:49.053Z,11.91
2022-09-12T02:53:49.958Z,11.88
2022-09-12T02:54:50.150Z,11.83
2022-09-12T02:55:50.759Z,11.88
2022-09-12T02:56:50.610Z,11.88
2022-09-12T02:57:51.219Z,11.95
2022-09-12T02:58:52.283Z,11.88
2022-09-12T02:59:53.528Z,11.93
2022-09-12T03:00:53.872Z,11.91
2022-09-12T03:01:54.805Z,11.85
2022-09-12T03:02:54.957Z,11.88
2022-09-12T03:03:55.881Z,11.86
2022-09-12T03:04:56.495Z,11.81
2022-09-12T03:05:57.147Z,11.85
2022-09-12T03:06:58.149Z,11.93
2022-09-12T03:07:58.330Z,11.88
2022-09-12T03:08:58.246Z,11.88
2022-09-12T03:09:59.154Z,11.86
2022-09-12T03:10:59.061Z,11.88
2022-09-12T03:11:59.974Z,11.89
2022-09-12T03:13:00.316Z,11.85
2022-09-12T03:14:01.201Z,11.81
2022-09-12T03:15:02.458Z,11.83
2022-09-12T03:16:02.947Z,11.81
2022-09-12T03:17:03.577Z,11.85
2022-09-12T03:18:03.783Z,11.8
2022-09-12T03:19:04.411Z,11.88
2022-09-12T03:20:05.029Z,11.71
2022-09-12T03:21:06.035Z,11.8
2022-09-12T03:22:06.263Z,11.76
2022-09-12T03:23:07.194Z,11.73
2022-09-12T03:24:07.523Z,11.78
2022-09-12T03:25:09.006Z,11.68
2022-09-12T03:26:09.920Z,11.65
2022-09-12T03:27:10.197Z,11.73
2022-09-12T03:28:10.105Z,11.78
2022-09-12T03:29:10.440Z,11.68
2022-09-12T03:30:11.392Z,11.73
2022-09-12T03:31:11.686Z,11.67
2022-09-12T03:32:12.593Z,11.74
2022-09-12T03:33:12.510Z,11.68
2022-09-12T03:34:13.420Z,11.76
2022-09-12T03:35:13.609Z,11.74
2022-09-12T03:36:14.160Z,11.68
2022-09-12T03:37:15.181Z,11.67
2022-09-12T03:38:15.792Z,11.71
2022-09-12T03:39:16.400Z,11.7
2022-09-12T03:40:17.328Z,11.73
2022-09-12T03:41:18.508Z,11.6
2022-09-12T03:42:19.115Z,11.63
2022-09-12T03:43:19.026Z,11.73
2022-09-12T03:44:19.635Z,11.62
2022-09-12T03:45:20.271Z,11.67
2022-09-12T03:46:20.607Z,11.62
2022-09-12T03:47:21.326Z,11.68
2022-09-12T03:48:21.522Z,11.67
2022-09-12T03:49:21.557Z,11.6
2022-09-12T03:50:22.867Z,11.59
2022-09-12T03:51:23.462Z,11.55
2022-09-12T03:52:24.153Z,11.56
2022-09-12T03:53:24.489Z,11.58
2022-09-12T03:54:25.682Z,11.59
2022-09-12T03:55:26.009Z,11.56
2022-09-12T03:56:26.924Z,11.44
2022-09-12T03:57:27.030Z,11.51
2022-09-12T03:58:27.517Z,11.49
2022-09-12T03:59:27.720Z,11.43
2022-09-12T04:00:28.347Z,11.45
2022-09-12T04:01:28.963Z,11.41
2022-09-12T04:02:28.685Z,11.44
2022-09-12T04:03:29.656Z,11.4
2022-09-12T04:04:30.141Z,11.4
2022-09-12T04:05:30.055Z,11.45
2022-09-12T04:06:30.961Z,11.45
2022-09-12T04:07:31.276Z,11.48
2022-09-12T04:08:32.186Z,11.45
2022-09-12T04:09:32.806Z,11.44
2022-09-12T04:10:33.415Z,11.44
2022-09-12T04:11:33.761Z,11.45
2022-09-12T04:12:34.775Z,11.56
2022-09-12T04:13:35.109Z,11.6
2022-09-12T04:14:35.816Z,11.52
2022-09-12T04:15:36.759Z,11.44
2022-09-12T04:16:36.841Z,11.44
2022-09-12T04:17:37.658Z,11.53
2022-09-12T04:18:38.554Z,11.48
2022-09-12T04:19:39.164Z,11.49
2022-09-12T04:20:40.372Z,11.48
2022-09-12T04:21:40.689Z,11.49
2022-09-12T04:22:41.180Z,11.45
2022-09-12T04:23:41.074Z,11.48
2022-09-12T04:24:42.258Z,11.45
2022-09-12T04:25:42.601Z,11.44
2022-09-12T04:26:43.510Z,11.49
2022-09-12T04:27:44.508Z,11.44
2022-09-12T04:28:45.236Z,11.51
2022-09-12T04:29:46.229Z,11.45
2022-09-12T04:30:47.017Z,11.38
2022-09-12T04:31:46.835Z,11.56
2022-09-12T04:32:47.719Z,11.53
2022-09-12T04:33:48.622Z,11.44
2022-09-12T04:34:49.249Z,11.48
2022-09-12T04:35:50.142Z,11.48
2022-09-12T04:36:50.326Z,11.51
2022-09-12T04:37:50.773Z,11.45
2022-09-12T04:38:51.775Z,11.44
2022-09-12T04:39:52.121Z,11.51
2022-09-12T04:40:52.322Z,11.48
2022-09-12T04:41:52.934Z,11.44
2022-09-12T04:42:52.843Z,11.53
2022-09-12T04:43:53.029Z,11.45
2022-09-12T04:44:53.948Z,11.4
2022-09-12T04:45:54.572Z,11.48
2022-09-12T04:46:54.953Z,11.41
2022-09-12T04:47:55.657Z,11.44
2022-09-12T04:49:02.404Z,11.41
2022-09-12T04:49:57.594Z,11.4
2022-09-12T04:50:57.510Z,11.35
2022-09-12T04:51:58.714Z,11.4
2022-09-12T04:52:58.922Z,11.35
2022-09-12T04:53:59.104Z,11.38
2022-09-12T04:54:59.711Z,11.38
2022-09-12T04:56:00.930Z,11.3
2022-09-12T04:57:01.541Z,11.34
2022-09-12T04:58:02.248Z,11.37
2022-09-12T04:59:01.863Z,11.35
2022-09-12T05:00:07.582Z,11.35
2022-09-12T05:01:03.047Z,11.33
2022-09-12T05:02:03.548Z,11.35
2022-09-12T05:03:03.912Z,11.35
2022-09-12T05:04:04.553Z,11.33
2022-09-12T05:05:05.161Z,11.27
2022-09-12T05:06:05.192Z,11.35
2022-09-12T05:07:06.104Z,11.33
2022-09-12T05:08:06.409Z,11.34
2022-09-12T05:09:06.716Z,11.34
2022-09-12T05:10:07.646Z,11.34
2022-09-12T05:11:08.284Z,11.43
2022-09-12T05:12:10.672Z,11.34
2022-09-12T05:13:09.394Z,11.37
2022-09-12T05:14:10.592Z,11.41
2022-09-12T05:15:11.225Z,11.4
2022-09-12T05:16:12.293Z,11.41
2022-09-12T05:17:12.787Z,11.38
2022-09-12T05:18:13.190Z,11.48
2022-09-12T05:19:14.398Z,11.43
2022-09-12T05:20:14.881Z,11.48
2022-09-12T05:21:15.512Z,11.4
2022-09-12T05:22:16.125Z,11.51
2022-09-12T05:23:17.027Z,11.49
2022-09-12T05:24:16.942Z,11.45
2022-09-12T05:25:17.834Z,11.59
2022-09-12T05:26:18.723Z,11.49
2022-09-12T05:27:19.916Z,11.51
2022-09-12T05:28:20.625Z,11.53
2022-09-12T05:29:20.558Z,11.55
2022-09-12T05:30:21.450Z,11.56
2022-09-12T05:31:21.770Z,11.59
2022-09-12T05:32:22.977Z,11.59
2022-09-12T05:33:25.758Z,11.6
2022-09-12T05:34:23.760Z,11.68
2022-09-12T05:35:23.724Z,11.59
2022-09-12T05:36:24.659Z,11.77
2022-09-12T05:37:25.548Z,11.71
2022-09-12T05:38:26.548Z,11.78
2022-09-12T05:39:27.160Z,11.8
2022-09-12T05:40:27.890Z,11.91
2022-09-12T05:41:31.085Z,11.95
2022-09-12T05:42:28.702Z,12.07
2022-09-12T05:43:29.617Z,12.03
2022-09-12T05:44:29.855Z,12.08
2022-09-12T05:45:30.871Z,12.07
2022-09-12T05:46:31.197Z,12.18
2022-09-12T05:47:31.691Z,12.18
2022-09-12T05:48:31.989Z,12.28
2022-09-12T05:49:32.002Z,12.29
2022-09-12T05:50:32.195Z,12.44
2022-09-12T05:51:33.405Z,12.4
2022-09-12T05:52:33.320Z,12.44
2022-09-12T05:53:34.527Z,12.53
2022-09-12T05:54:37.437Z,12.54
2022-09-12T05:55:35.038Z,12.57
2022-09-12T05:56:35.091Z,12.66
2022-09-12T05:57:35.422Z,12.61
2022-09-12T05:58:36.134Z,12.7
2022-09-12T05:59:37.192Z,12.76
2022-09-12T06:00:39.671Z,12.94
2022-09-12T06:01:38.872Z,12.88
2022-09-12T06:02:39.128Z,12.93
2022-09-12T06:03:40.638Z,13.03
2022-09-12T06:04:40.258Z,13.02
2022-09-12T06:05:41.471Z,13.13
2022-09-12T06:06:42.156Z,13.19
2022-09-12T06:07:42.773Z,13.17
2022-09-12T06:08:44.014Z,13.26
2022-09-12T06:09:44.538Z,13.28
2022-09-12T06:10:44.432Z,13.2
2022-09-12T06:11:45.047Z,13.28
2022-09-12T06:12:44.969Z,13.52
2022-09-12T06:13:46.560Z,13.73
2022-09-12T06:14:46.474Z,14.18
2022-09-12T06:15:46.964Z,14.62
2022-09-12T06:16:47.168Z,15.04
2022-09-12T06:17:51.603Z,15.45
2022-09-12T06:18:48.411Z,15.67
2022-09-12T06:19:49.365Z,16.09
2022-09-12T06:20:49.302Z,16.47
2022-09-12T06:21:50.575Z,16.62
2022-09-12T06:22:51.186Z,16.76
2022-09-12T06:23:51.413Z,16.82
2022-09-12T06:24:58.034Z,17.02
2022-09-12T06:25:51.785Z,17.22
2022-09-12T06:26:52.426Z,17.27
2022-09-12T06:27:52.348Z,17.34
2022-09-12T06:28:53.554Z,17.28
2022-09-12T06:29:54.175Z,17.2
2022-09-12T06:30:55.278Z,17.35
2022-09-12T06:31:55.946Z,17.42
2022-09-12T06:32:56.158Z,17.56
2022-09-12T06:33:56.780Z,17.9
2022-09-12T06:34:57.410Z,18.19
2022-09-12T06:35:58.603Z,18.55
2022-09-12T06:36:58.503Z,18.88
2022-09-12T06:37:59.448Z,19.17
2022-09-12T06:39:00.486Z,19.38
2022-09-12T06:40:02.640Z,19.49
2022-09-12T06:41:01.985Z,19.77
2022-09-12T06:42:02.387Z,19.75
2022-09-12T06:43:02.312Z,19.89
2022-09-12T06:44:03.232Z,19.89
2022-09-12T06:45:04.450Z,19.82
2022-09-12T06:46:04.484Z,19.87
2022-09-12T06:47:05.288Z,19.85
2022-09-12T06:48:05.214Z,19.96
2022-09-12T06:49:05.760Z,20
2022-09-12T06:50:06.710Z,20.11
2022-09-12T06:51:07.362Z,20.21
2022-09-12T06:52:07.820Z,20.37
2022-09-12T06:53:08.451Z,20.4
2022-09-12T06:54:09.432Z,20.3
2022-09-12T06:55:09.647Z,20.29
2022-09-12T06:56:09.815Z,20.22
2022-09-12T06:57:10.713Z,20.18
2022-09-12T06:58:11.241Z,20.17
2022-09-12T06:59:11.550Z,20.19
2022-09-12T07:00:11.752Z,20.14
2022-09-12T07:01:12.925Z,20.08
2022-09-12T07:02:13.916Z,20.04
2022-09-12T07:03:14.017Z,20.08
2022-09-12T07:04:15.226Z,19.84
2022-09-12T07:05:16.436Z,19.79
2022-09-12T07:06:16.764Z,19.77
2022-09-12T07:07:17.684Z,19.6
2022-09-12T07:08:17.924Z,19.49
2022-09-12T07:09:18.539Z,19.52
2022-09-12T07:10:22.802Z,19.45
2022-09-12T07:11:19.367Z,19.42
2022-09-12T07:12:19.901Z,19.38
2022-09-12T07:13:20.178Z,19.38
2022-09-12T07:14:21.065Z,19.24
2022-09-12T07:15:22.021Z,19.19
2022-09-12T07:16:25.446Z,19.05
2022-09-12T07:17:23.165Z,19.01
2022-09-12T07:18:23.471Z,18.96
2022-09-12T07:19:24.477Z,18.96
2022-09-12T07:20:25.062Z,18.86
2022-09-12T07:21:25.327Z,18.86
2022-09-12T07:22:25.672Z,18.74
2022-09-12T07:23:26.319Z,18.76
2022-09-12T07:24:27.233Z,18.68
2022-09-12T07:25:26.869Z,18.64
2022-09-12T07:26:28.496Z,18.66
2022-09-12T07:27:29.413Z,18.57
2022-09-12T07:28:29.331Z,18.7
2022-09-12T07:29:44.596Z,18.76
2022-09-12T07:30:45.122Z,18.91
2022-09-12T07:31:46.175Z,18.92
2022-09-12T07:32:47.122Z,18.96
2022-09-12T07:33:54.690Z,18.98
2022-09-12T07:34:47.247Z,18.92
2022-09-12T07:35:47.857Z,19
2022-09-12T07:36:48.092Z,18.89
2022-09-12T07:37:49.018Z,18.91
2022-09-12T07:38:49.358Z,18.81
2022-09-12T07:39:49.915Z,18.74
2022-09-12T07:40:50.008Z,18.73
2022-09-12T07:41:49.683Z,18.57
2022-09-12T07:42:50.430Z,18.57
2022-09-12T07:43:51.371Z,18.57
2022-09-12T07:44:52.288Z,18.57
2022-09-12T07:45:52.609Z,18.57
2022-09-12T07:46:52.139Z,18.49
2022-09-12T07:47:53.427Z,18.51
2022-09-12T07:48:53.657Z,18.46
2022-09-12T07:49:54.047Z,18.31
2022-09-12T07:50:54.314Z,18.36
2022-09-12T07:51:54.809Z,18.41
2022-09-12T07:52:54.740Z,18.45
2022-09-12T07:53:55.682Z,18.28
2022-09-12T07:54:56.332Z,18.31
2022-09-12T07:55:56.577Z,18.3
2022-09-12T07:56:56.684Z,18.36
2022-09-12T07:57:58.040Z,18.31
2022-09-12T07:58:57.699Z,18.27
2022-09-12T07:59:59.830Z,18.34
2022-09-12T08:01:00.172Z,18.33
2022-09-12T08:01:59.974Z,18.28
2022-09-12T08:03:00.640Z,18.27
2022-09-12T08:04:01.881Z,18.27
2022-09-12T08:05:02.514Z,18.21
2022-09-12T08:06:03.018Z,18.18
2022-09-12T08:07:03.242Z,18.23
2022-09-12T08:08:04.203Z,18.21
2022-09-12T08:09:05.158Z,18.16
2022-09-12T08:10:06.186Z,18.26
2022-09-12T08:11:06.693Z,18.15
2022-09-12T08:12:07.177Z,18.18
2022-09-12T08:13:07.449Z,18.24
2022-09-12T08:14:08.348Z,18.23
2022-09-12T08:15:09.228Z,18.27
2022-09-12T08:16:09.652Z,18.23
2022-09-12T08:17:09.634Z,18.18
2022-09-12T08:18:10.704Z,18.08
2022-09-12T08:19:10.623Z,18.05
2022-09-12T08:20:11.646Z,18
2022-09-12T08:21:12.455Z,18.06
2022-09-12T08:22:13.649Z,18.05
2022-09-12T08:23:14.149Z,17.95
2022-09-12T08:24:14.407Z,18.02
2022-09-12T08:25:14.419Z,18.03
2022-09-12T08:26:14.879Z,17.95
2022-09-12T08:27:15.799Z,17.97
2022-09-12T08:28:16.486Z,18.06
2022-09-12T08:29:17.683Z,18.18
2022-09-12T08:30:18.000Z,18.12
2022-09-12T08:31:18.157Z,18.21
2022-09-12T08:32:19.678Z,18.18
2022-09-12T08:33:20.203Z,18.18
2022-09-12T08:34:20.176Z,18.12
2022-09-12T08:35:20.819Z,18.18
2022-09-12T08:36:21.749Z,18.16
2022-09-12T08:37:22.946Z,18.18
2022-09-12T08:38:22.847Z,18.23
2022-09-12T08:39:23.524Z,18.23
2022-09-12T08:40:24.166Z,18.24
2022-09-12T08:41:24.685Z,18.24
2022-09-12T08:42:24.647Z,18.28
2022-09-12T08:43:25.624Z,18.34
2022-09-12T08:44:26.845Z,18.41
2022-09-12T08:45:27.449Z,18.48
2022-09-12T08:46:27.711Z,18.36
2022-09-12T08:47:27.941Z,18.46
2022-09-12T08:48:28.896Z,18.45
2022-09-12T08:49:29.399Z,18.49
2022-09-12T08:50:29.805Z,18.51
2022-09-12T08:51:29.736Z,18.49
2022-09-12T08:52:31.084Z,18.58
2022-09-12T08:53:32.047Z,18.57
2022-09-12T08:54:32.973Z,18.58
2022-09-12T08:55:33.216Z,18.66
2022-09-12T08:56:37.627Z,18.71
2022-09-12T08:57:34.558Z,18.76
2022-09-12T08:58:35.759Z,18.74
2022-09-12T08:59:36.720Z,18.76
2022-09-12T09:00:37.142Z,18.81
2022-09-12T09:01:38.243Z,18.81
2022-09-12T09:02:38.884Z,18.71
2022-09-12T09:03:39.021Z,18.79
2022-09-12T09:04:39.360Z,18.74
2022-09-12T09:05:39.857Z,18.66
2022-09-12T09:06:39.776Z,18.79
2022-09-12T09:07:40.685Z,18.76
2022-09-12T09:08:41.615Z,18.7
2022-09-12T09:09:42.555Z,18.73
2022-09-12T09:10:43.282Z,18.74
2022-09-12T09:11:44.205Z,18.86
2022-09-12T09:12:44.171Z,18.71
2022-09-12T09:13:45.440Z,18.73
2022-09-12T09:14:45.423Z,18.74
2022-09-12T09:15:47.054Z,18.7
2022-09-12T09:16:46.518Z,18.73
2022-09-12T09:17:47.439Z,18.74
2022-09-12T09:18:47.693Z,18.78
2022-09-12T09:19:51.278Z,18.73
2022-09-12T09:20:48.866Z,18.76
2022-09-12T09:21:49.784Z,18.74
2022-09-12T09:22:50.283Z,18.86
2022-09-12T09:23:50.016Z,18.96
2022-09-12T09:24:51.216Z,19.07
2022-09-12T09:25:51.465Z,19.05
2022-09-12T09:26:51.426Z,19.34
2022-09-12T09:27:52.074Z,19.41
2022-09-12T09:28:53.290Z,19.3
2022-09-12T09:29:54.243Z,19.48
2022-09-12T09:30:54.400Z,19.44
2022-09-12T09:31:55.087Z,19.47
2022-09-12T09:32:55.991Z,19.45
2022-09-12T09:33:56.063Z,19.53
2022-09-12T09:34:56.022Z,19.53
2022-09-12T09:35:56.969Z,19.37
2022-09-12T09:36:57.963Z,19.3
2022-09-12T09:38:03.681Z,19.3
2022-09-12T09:39:00.090Z,19.34
2022-09-12T09:39:59.665Z,19.47
2022-09-12T09:41:00.138Z,19.56
2022-09-12T09:42:00.330Z,19.53
2022-09-12T09:43:00.524Z,19.53
2022-09-12T09:44:00.939Z,19.48
2022-09-12T09:45:01.651Z,19.55
2022-09-12T09:46:02.716Z,19.66
2022-09-12T09:47:02.541Z,19.81
2022-09-12T09:48:03.488Z,19.85
2022-09-12T09:49:04.793Z,19.94
2022-09-12T09:50:04.756Z,20.04
2022-09-12T09:51:05.619Z,20.15
2022-09-12T09:52:06.731Z,20.24
2022-09-12T09:53:07.236Z,20.5
2022-09-12T09:54:07.146Z,20.6
2022-09-12T09:55:08.340Z,20.49
2022-09-12T09:56:08.269Z,20.53
2022-09-12T09:57:08.872Z,20.39
2022-09-12T09:58:10.070Z,20.27
2022-09-12T09:59:10.698Z,20.24
2022-09-12T10:00:11.623Z,20.27
2022-09-12T10:01:12.521Z,20.22
2022-09-12T10:02:13.576Z,20.42
2022-09-12T10:03:19.158Z,20.33
2022-09-12T10:04:14.405Z,20.36
2022-09-12T10:05:14.919Z,20.29
2022-09-12T10:06:15.126Z,20.3
2022-09-12T10:07:15.627Z,20.52
2022-09-12T10:08:15.560Z,20.74
2022-09-12T10:09:16.233Z,21.17
2022-09-12T10:10:17.280Z,21.6
2022-09-12T10:11:17.616Z,21.84
2022-09-12T10:12:18.100Z,22.16
2022-09-12T10:13:18.020Z,22.62
2022-09-12T10:14:18.295Z,22.95
2022-09-12T10:15:18.550Z,23.34
2022-09-12T10:16:19.423Z,23.45
2022-09-12T10:17:19.665Z,23.58
2022-09-12T10:18:19.887Z,23.74
2022-09-12T10:19:20.457Z,23.94
2022-09-12T10:20:27.556Z,24.19
2022-09-12T10:21:21.174Z,24.13
2022-09-12T10:22:22.133Z,24.31
2022-09-12T10:23:23.070Z,24.32
2022-09-12T10:24:23.592Z,24.59
2022-09-12T10:25:23.846Z,24.69
2022-09-12T10:26:24.348Z,24.97
2022-09-12T10:27:24.292Z,25.16
2022-09-12T10:28:25.228Z,25.36
2022-09-12T10:29:25.456Z,25.55
2022-09-12T10:30:26.480Z,25.59
2022-09-12T10:31:26.430Z,25.67
2022-09-12T10:32:32.039Z,25.81
2022-09-12T10:33:27.398Z,26.13
2022-09-12T10:34:28.052Z,26.19
2022-09-12T10:35:27.997Z,26.42
2022-09-12T10:36:29.205Z,26.67
2022-09-12T10:37:30.417Z,26.66
2022-09-12T10:38:30.351Z,26.68
2022-09-12T10:39:30.596Z,26.7
2022-09-12T10:40:32.052Z,26.67
2022-09-12T10:41:32.443Z,26.39
2022-09-12T10:42:32.651Z,26.13
2022-09-12T10:43:32.987Z,25.98
2022-09-12T10:44:33.639Z,25.99
2022-09-12T10:45:34.247Z,26.03
2022-09-12T10:46:34.911Z,26.08
2022-09-12T10:47:35.569Z,26.18
2022-09-12T10:48:35.836Z,26.24
2022-09-12T10:49:36.488Z,26.46
2022-09-12T10:50:37.000Z,26.67
2022-09-12T10:51:37.451Z,26.68
2022-09-12T10:52:38.675Z,26.93
2022-09-12T10:53:40.205Z,27.08
2022-09-12T10:54:39.515Z,27.19
2022-09-12T10:55:39.450Z,27.16
2022-09-12T10:56:40.694Z,26.92
2022-09-12T10:57:40.920Z,26.91
2022-09-12T10:58:41.833Z,27.07
2022-09-12T10:59:42.765Z,27.08
2022-09-12T11:00:43.513Z,27.15
2022-09-12T11:01:44.249Z,27.13
2022-09-12T11:02:44.464Z,27.15
2022-09-12T11:03:45.092Z,27.15
2022-09-12T11:04:46.103Z,26.83
2022-09-12T11:05:46.343Z,26.56
2022-09-12T11:06:46.729Z,26.33
2022-09-12T11:07:47.075Z,26.15
2022-09-12T11:08:47.744Z,25.89
2022-09-12T11:09:48.595Z,25.88
2022-09-12T11:10:50.537Z,25.95
2022-09-12T11:11:49.560Z,26.08
2022-09-12T11:12:49.207Z,26.11
2022-09-12T11:13:50.440Z,26.1
2022-09-12T11:14:50.656Z,26.01
2022-09-12T11:15:50.810Z,25.92
2022-09-12T11:16:51.705Z,25.88
2022-09-12T11:17:52.357Z,25.77
2022-09-12T11:18:53.297Z,25.86
2022-09-12T11:19:54.267Z,25.86
2022-09-12T11:20:54.765Z,26.03
2022-09-12T11:21:55.095Z,26.01
2022-09-12T11:22:55.051Z,25.95
2022-09-12T11:23:56.023Z,25.83
2022-09-12T11:24:56.251Z,25.73
2022-09-12T11:25:56.882Z,25.63
2022-09-12T11:26:57.117Z,25.55
2022-09-12T11:27:57.050Z,25.61
2022-09-12T11:28:58.291Z,25.54
2022-09-12T11:29:58.670Z,25.7
2022-09-12T11:30:59.782Z,25.74
2022-09-12T11:31:59.986Z,25.88
2022-09-12T11:33:00.320Z,25.83
2022-09-12T11:34:02.649Z,25.63
2022-09-12T11:35:01.928Z,25.56
2022-09-12T11:36:02.542Z,25.41
2022-09-12T11:37:04.684Z,25.33
2022-09-12T11:38:03.945Z,25.19
2022-09-12T11:39:05.167Z,25.01
2022-09-12T11:40:05.668Z,24.94
2022-09-12T11:41:06.006Z,25
2022-09-12T11:42:07.334Z,25.14
2022-09-12T11:43:07.980Z,25.19
2022-09-12T11:44:09.186Z,25.19
2022-09-12T11:45:09.116Z,25.29
2022-09-12T11:46:10.231Z,25.15
2022-09-12T11:47:10.632Z,24.96
2022-09-12T11:48:10.558Z,24.69
2022-09-12T11:49:11.493Z,24.55
2022-09-12T11:50:11.742Z,24.21
2022-09-12T11:51:12.251Z,24.03
2022-09-12T11:52:12.251Z,23.95
2022-09-12T11:53:13.221Z,23.85
2022-09-12T11:54:13.153Z,23.76
2022-09-12T11:55:14.803Z,23.62
2022-09-12T11:56:15.003Z,23.67
2022-09-12T11:57:15.221Z,23.71
2022-09-12T11:58:15.142Z,23.81
2022-09-12T11:59:16.069Z,23.88
2022-09-12T12:00:16.069Z,23.89
2022-09-12T12:01:16.712Z,23.89
2022-09-12T12:02:18.183Z,23.89
2022-09-12T12:03:18.254Z,23.95
2022-09-12T12:04:18.588Z,24.09
2022-09-12T12:05:19.555Z,24.16
2022-09-12T12:06:19.778Z,24.21
2022-09-12T12:07:20.115Z,24.28
2022-09-12T12:08:21.626Z,24.29
2022-09-12T12:09:22.543Z,24.14
2022-09-12T12:10:23.046Z,24.19
2022-09-12T12:11:22.970Z,24.19
2022-09-12T12:12:23.803Z,24.18
2022-09-12T12:13:24.026Z,24.18
2022-09-12T12:14:23.953Z,24.14
2022-09-12T12:15:24.867Z,24.11
2022-09-12T12:16:25.037Z,24.09
2022-09-12T12:17:25.516Z,24.21
2022-09-12T12:18:25.147Z,24.36
2022-09-12T12:19:26.730Z,24.44
2022-09-12T12:20:27.734Z,24.51
2022-09-12T12:21:27.971Z,24.61
2022-09-12T12:22:28.763Z,24.77
2022-09-12T12:23:28.805Z,24.86
2022-09-12T12:24:29.140Z,25.03
2022-09-12T12:25:35.376Z,24.94
2022-09-12T12:26:30.016Z,25.14
2022-09-12T12:27:30.571Z,25.19
2022-09-12T12:28:35.512Z,25.24
2022-09-12T12:29:32.123Z,25.33
2022-09-12T12:30:32.151Z,25.33
2022-09-12T12:31:33.652Z,25.41
2022-09-12T12:32:34.088Z,25.51
2022-09-12T12:33:34.297Z,25.59
2022-09-12T12:34:34.599Z,25.63
2022-09-12T12:35:35.594Z,25.77
2022-09-12T12:36:36.103Z,25.8
2022-09-12T12:37:36.631Z,25.88
2022-09-12T12:38:36.920Z,25.83
2022-09-12T12:39:36.751Z,25.76
2022-09-12T12:40:36.952Z,25.7
2022-09-12T12:41:38.011Z,25.63
2022-09-12T12:42:38.380Z,25.66
2022-09-12T12:43:38.876Z,25.77
2022-09-12T12:44:39.528Z,25.8
2022-09-12T12:45:40.524Z,25.89
2022-09-12T12:46:41.013Z,26.08
2022-09-12T12:47:40.726Z,26.11
2022-09-12T12:48:41.780Z,26.22
2022-09-12T12:49:42.040Z,26.19
2022-09-12T12:50:42.598Z,26.23
2022-09-12T12:51:42.806Z,26.13
2022-09-12T12:52:43.862Z,26.03
2022-09-12T12:53:44.124Z,25.95
2022-09-12T12:54:44.785Z,25.8
2022-09-12T12:55:45.991Z,25.59
2022-09-12T12:56:46.650Z,25.33
2022-09-12T12:57:46.895Z,25.22
2022-09-12T12:58:47.827Z,25.01
2022-09-12T12:59:48.761Z,25.06
2022-09-12T13:00:49.396Z,24.99
2022-09-12T13:01:55.605Z,25.16
2022-09-12T13:02:51.315Z,25.34
2022-09-12T13:03:51.825Z,25.34
2022-09-12T13:04:52.423Z,25.37